Terminal Aerodrome Forecast
Issued by NWS

Home | Current Version | Previous Version | Text Only | Print | Product List | Glossary On
Versions: 1 2 3 4 5 6 7 8 9 10 11 12
000
FTUS45 KABQ 220500 RRA
TAFGUP
TAF
KGUP 220547Z 2206/2306 VRB04KT P6SM SCT110
     FM221600 05009KT P6SM SCT120
     FM222100 12010G16KT P6SM VCSH BKN110
     FM230200 15007KT P6SM BKN110=

USA.gov is the U.S. government's official web portal to all federal, state and local government web resources and services.